KHSB/HSB METAR and TAF weather

Enter ICAO airport designator
Station Type Date Time Source
KHSB METAR 2023/10/01 01:15 UTC NOAA

KHSB 010115Z AUTO 04003KT 10SM CLR 19/16 A3016 RMK AO2 T01910156


Station Type Date Time Source
KHSB Decoded METAR 2023/10/01 01:15 UTC NOAA

Harrisburg, Harrisburg-Raleigh Airport, IL, United States (KHSB) 37-48-41N 088-32-57W
Sep 30, 2023 - 09:15 PM EDT / 2023.10.01 0115 UTC
Wind: from the NE (040 degrees) at 3 MPH (3 KT):0
Visibility: 10 mile(s):0
Sky conditions: clear
Temperature: 66.4 F (19.1 C)
Dew Point: 60.1 F (15.6 C)
Relative Humidity: 80%
Pressure (altimeter): 30.16 in. Hg (1021 hPa)
ob: KHSB 010115Z AUTO 04003KT 10SM CLR 19/16 A3016 RMK AO2 T01910156
cycle: 1

Station Type Date Time Source
KHSB TAF UTC NOAA

Error!

Example: see airport list